METAR LSZS 051620Z 30011KT 270V330 9999 FEW065 22/09 Q1022 RMK